sensor_id;sensor_type;location;lat;lon;timestamp;P1;durP1;ratioP1;P2;durP2;ratioP2
69417;SDS011;56610;48.872;2.400;2023-01-01T00:02:14;2.75;;;1.70;;
69417;SDS011;56610;48.872;2.400;2023-01-01T00:04:40;3.08;;;1.80;;
69417;SDS011;56610;48.872;2.400;2023-01-01T00:07:06;2.47;;;1.50;;
69417;SDS011;56610;48.872;2.400;2023-01-01T00:09:32;2.65;;;1.75;;
69417;SDS011;56610;48.872;2.400;2023-01-01T00:12:16;3.22;;;1.65;;
69417;SDS011;56610;48.872;2.400;2023-01-01T00:14:41;4.43;;;1.90;;
69417;SDS011;56610;48.872;2.400;2023-01-01T00:17:08;1.95;;;1.52;;
69417;SDS011;56610;48.872;2.400;2023-01-01T00:19:34;2.55;;;2.08;;
69417;SDS011;56610;48.872;2.400;2023-01-01T00:22:00;4.60;;;2.17;;
69417;SDS011;56610;48.872;2.400;2023-01-01T00:24:25;3.72;;;1.77;;
69417;SDS011;56610;48.872;2.400;2023-01-01T00:26:51;4.32;;;1.75;;
69417;SDS011;56610;48.872;2.400;2023-01-01T00:29:16;2.90;;;1.92;;
69417;SDS011;56610;48.872;2.400;2023-01-01T00:31:42;3.30;;;2.00;;
69417;SDS011;56610;48.872;2.400;2023-01-01T00:34:08;3.10;;;1.77;;
69417;SDS011;56610;48.872;2.400;2023-01-01T00:36:34;5.13;;;2.00;;
69417;SDS011;56610;48.872;2.400;2023-01-01T00:39:00;4.78;;;1.75;;
69417;SDS011;56610;48.872;2.400;2023-01-01T00:41:27;3.88;;;2.35;;
69417;SDS011;56610;48.872;2.400;2023-01-01T00:43:52;3.30;;;2.00;;
69417;SDS011;56610;48.872;2.400;2023-01-01T00:46:18;5.35;;;2.08;;
69417;SDS011;56610;48.872;2.400;2023-01-01T00:48:44;3.75;;;1.85;;
69417;SDS011;56610;48.872;2.400;2023-01-01T00:51:10;6.57;;;2.10;;
69417;SDS011;56610;48.872;2.400;2023-01-01T00:53:36;4.70;;;2.10;;
69417;SDS011;56610;48.872;2.400;2023-01-01T00:56:02;3.13;;;1.98;;
69417;SDS011;56610;48.872;2.400;2023-01-01T00:58:28;5.28;;;2.45;;
69417;SDS011;56610;48.872;2.400;2023-01-01T01:00:54;3.00;;;1.70;;
69417;SDS011;56610;48.872;2.400;2023-01-01T01:03:20;2.88;;;2.00;;
69417;SDS011;56610;48.872;2.400;2023-01-01T01:05:56;4.25;;;2.53;;
69417;SDS011;56610;48.872;2.400;2023-01-01T01:08:23;4.13;;;1.80;;
69417;SDS011;56610;48.872;2.400;2023-01-01T01:10:49;3.97;;;2.40;;
69417;SDS011;56610;48.872;2.400;2023-01-01T01:13:15;3.78;;;2.15;;
69417;SDS011;56610;48.872;2.400;2023-01-01T01:15:41;3.17;;;1.90;;
69417;SDS011;56610;48.872;2.400;2023-01-01T01:18:06;5.25;;;2.17;;
69417;SDS011;56610;48.872;2.400;2023-01-01T01:20:32;3.13;;;1.77;;
69417;SDS011;56610;48.872;2.400;2023-01-01T01:22:58;6.47;;;2.47;;
69417;SDS011;56610;48.872;2.400;2023-01-01T01:25:23;6.05;;;2.40;;
69417;SDS011;56610;48.872;2.400;2023-01-01T01:27:49;3.95;;;2.42;;
69417;SDS011;56610;48.872;2.400;2023-01-01T01:30:14;3.70;;;2.20;;
69417;SDS011;56610;48.872;2.400;2023-01-01T01:32:40;5.22;;;2.30;;
69417;SDS011;56610;48.872;2.400;2023-01-01T01:35:06;6.80;;;2.63;;
69417;SDS011;56610;48.872;2.400;2023-01-01T01:37:31;4.88;;;2.60;;
69417;SDS011;56610;48.872;2.400;2023-01-01T01:39:57;5.55;;;2.47;;
69417;SDS011;56610;48.872;2.400;2023-01-01T01:42:23;6.60;;;2.70;;
69417;SDS011;56610;48.872;2.400;2023-01-01T01:44:50;3.15;;;1.85;;
69417;SDS011;56610;48.872;2.400;2023-01-01T01:49:54;4.22;;;2.33;;
69417;SDS011;56610;48.872;2.400;2023-01-01T01:53:01;4.20;;;2.17;;
69417;SDS011;56610;48.872;2.400;2023-01-01T01:55:28;4.15;;;2.30;;
69417;SDS011;56610;48.872;2.400;2023-01-01T01:57:56;5.38;;;2.53;;
69417;SDS011;56610;48.872;2.400;2023-01-01T02:00:22;3.58;;;2.40;;
69417;SDS011;56610;48.872;2.400;2023-01-01T02:05:45;6.38;;;2.33;;
69417;SDS011;56610;48.872;2.400;2023-01-01T02:10:39;8.50;;;2.88;;
69417;SDS011;56610;48.872;2.400;2023-01-01T02:13:05;7.40;;;2.30;;
69417;SDS011;56610;48.872;2.400;2023-01-01T02:15:36;5.53;;;2.53;;
69417;SDS011;56610;48.872;2.400;2023-01-01T02:18:09;4.03;;;2.63;;
69417;SDS011;56610;48.872;2.400;2023-01-01T02:20:39;5.15;;;2.38;;
69417;SDS011;56610;48.872;2.400;2023-01-01T02:28:58;8.00;;;2.78;;
69417;SDS011;56610;48.872;2.400;2023-01-01T02:31:51;4.03;;;2.17;;
69417;SDS011;56610;48.872;2.400;2023-01-01T02:34:26;4.75;;;2.30;;
69417;SDS011;56610;48.872;2.400;2023-01-01T02:36:56;4.68;;;2.10;;
69417;SDS011;56610;48.872;2.400;2023-01-01T02:39:24;4.47;;;2.08;;
69417;SDS011;56610;48.872;2.400;2023-01-01T02:41:53;7.43;;;2.38;;
69417;SDS011;56610;48.872;2.400;2023-01-01T02:44:21;9.85;;;2.92;;
69417;SDS011;56610;48.872;2.400;2023-01-01T02:46:50;5.15;;;2.50;;
69417;SDS011;56610;48.872;2.400;2023-01-01T02:49:16;6.43;;;2.35;;
69417;SDS011;56610;48.872;2.400;2023-01-01T03:03:05;4.47;;;2.40;;
69417;SDS011;56610;48.872;2.400;2023-01-01T03:05:39;5.97;;;2.47;;
69417;SDS011;56610;48.872;2.400;2023-01-01T03:11:24;5.53;;;2.55;;
69417;SDS011;56610;48.872;2.400;2023-01-01T03:19:23;4.43;;;2.45;;
69417;SDS011;56610;48.872;2.400;2023-01-01T03:22:00;6.63;;;2.70;;
69417;SDS011;56610;48.872;2.400;2023-01-01T03:24:43;6.95;;;3.38;;
69417;SDS011;56610;48.872;2.400;2023-01-01T03:27:14;6.63;;;2.72;;
69417;SDS011;56610;48.872;2.400;2023-01-01T03:29:44;5.35;;;2.83;;
69417;SDS011;56610;48.872;2.400;2023-01-01T03:32:14;8.98;;;3.10;;
69417;SDS011;56610;48.872;2.400;2023-01-01T03:34:48;6.68;;;3.08;;
69417;SDS011;56610;48.872;2.400;2023-01-01T03:37:20;6.38;;;3.45;;
69417;SDS011;56610;48.872;2.400;2023-01-01T03:39:50;5.30;;;2.33;;
69417;SDS011;56610;48.872;2.400;2023-01-01T03:42:32;3.53;;;2.25;;
69417;SDS011;56610;48.872;2.400;2023-01-01T03:45:03;5.68;;;2.70;;
69417;SDS011;56610;48.872;2.400;2023-01-01T03:47:34;5.00;;;2.05;;
69417;SDS011;56610;48.872;2.400;2023-01-01T03:50:00;6.45;;;2.22;;
69417;SDS011;56610;48.872;2.400;2023-01-01T03:55:01;5.78;;;2.30;;
69417;SDS011;56610;48.872;2.400;2023-01-01T04:00:36;6.57;;;2.70;;
69417;SDS011;56610;48.872;2.400;2023-01-01T04:03:19;6.50;;;2.80;;
69417;SDS011;56610;48.872;2.400;2023-01-01T04:05:47;3.70;;;2.28;;
69417;SDS011;56610;48.872;2.400;2023-01-01T04:08:13;4.82;;;2.22;;
69417;SDS011;56610;48.872;2.400;2023-01-01T04:10:41;6.15;;;2.20;;
69417;SDS011;56610;48.872;2.400;2023-01-01T04:13:09;6.13;;;2.17;;
69417;SDS011;56610;48.872;2.400;2023-01-01T04:15:35;6.22;;;2.25;;
69417;SDS011;56610;48.872;2.400;2023-01-01T04:18:01;7.25;;;2.55;;
69417;SDS011;56610;48.872;2.400;2023-01-01T04:20:27;6.18;;;2.60;;
69417;SDS011;56610;48.872;2.400;2023-01-01T04:22:56;5.18;;;2.47;;
69417;SDS011;56610;48.872;2.400;2023-01-01T04:25:23;6.50;;;2.25;;
69417;SDS011;56610;48.872;2.400;2023-01-01T04:27:48;6.85;;;2.40;;
69417;SDS011;56610;48.872;2.400;2023-01-01T04:30:14;4.97;;;2.50;;
69417;SDS011;56610;48.872;2.400;2023-01-01T04:32:40;6.15;;;2.35;;
69417;SDS011;56610;48.872;2.400;2023-01-01T04:35:26;7.05;;;3.30;;
69417;SDS011;56610;48.872;2.400;2023-01-01T04:37:52;7.43;;;2.70;;
69417;SDS011;56610;48.872;2.400;2023-01-01T04:40:18;4.28;;;2.30;;
69417;SDS011;56610;48.872;2.400;2023-01-01T04:42:43;4.15;;;2.33;;
69417;SDS011;56610;48.872;2.400;2023-01-01T04:45:09;6.75;;;2.40;;
69417;SDS011;56610;48.872;2.400;2023-01-01T04:47:38;5.80;;;2.60;;
69417;SDS011;56610;48.872;2.400;2023-01-01T04:50:05;7.80;;;2.60;;
69417;SDS011;56610;48.872;2.400;2023-01-01T04:52:31;6.35;;;2.55;;
69417;SDS011;56610;48.872;2.400;2023-01-01T04:54:57;7.03;;;2.92;;
69417;SDS011;56610;48.872;2.400;2023-01-01T04:57:23;6.60;;;2.40;;
69417;SDS011;56610;48.872;2.400;2023-01-01T04:59:48;5.65;;;2.78;;
69417;SDS011;56610;48.872;2.400;2023-01-01T05:02:14;5.13;;;2.10;;
69417;SDS011;56610;48.872;2.400;2023-01-01T05:04:39;4.50;;;2.42;;
69417;SDS011;56610;48.872;2.400;2023-01-01T05:07:05;7.78;;;2.58;;
69417;SDS011;56610;48.872;2.400;2023-01-01T05:09:30;8.18;;;2.30;;
69417;SDS011;56610;48.872;2.400;2023-01-01T05:11:56;5.57;;;2.35;;
69417;SDS011;56610;48.872;2.400;2023-01-01T05:14:21;5.63;;;2.70;;
69417;SDS011;56610;48.872;2.400;2023-01-01T05:16:47;6.57;;;2.67;;
69417;SDS011;56610;48.872;2.400;2023-01-01T05:19:13;5.30;;;2.28;;
69417;SDS011;56610;48.872;2.400;2023-01-01T05:21:38;6.85;;;2.50;;
69417;SDS011;56610;48.872;2.400;2023-01-01T05:24:05;5.55;;;2.67;;
69417;SDS011;56610;48.872;2.400;2023-01-01T05:28:59;6.25;;;2.78;;
69417;SDS011;56610;48.872;2.400;2023-01-01T05:31:26;4.65;;;2.33;;
69417;SDS011;56610;48.872;2.400;2023-01-01T05:33:54;6.03;;;2.55;;
69417;SDS011;56610;48.872;2.400;2023-01-01T05:36:22;6.07;;;2.35;;
69417;SDS011;56610;48.872;2.400;2023-01-01T05:38:50;6.18;;;2.70;;
69417;SDS011;56610;48.872;2.400;2023-01-01T05:41:16;9.15;;;2.65;;
69417;SDS011;56610;48.872;2.400;2023-01-01T05:43:43;8.82;;;2.42;;
69417;SDS011;56610;48.872;2.400;2023-01-01T05:46:09;6.60;;;2.60;;
69417;SDS011;56610;48.872;2.400;2023-01-01T05:48:36;6.32;;;2.50;;
69417;SDS011;56610;48.872;2.400;2023-01-01T05:51:07;9.38;;;3.20;;
69417;SDS011;56610;48.872;2.400;2023-01-01T05:53:34;7.38;;;2.60;;
69417;SDS011;56610;48.872;2.400;2023-01-01T05:56:00;7.82;;;2.58;;
69417;SDS011;56610;48.872;2.400;2023-01-01T05:58:26;6.97;;;2.55;;
69417;SDS011;56610;48.872;2.400;2023-01-01T06:00:53;9.30;;;2.75;;
69417;SDS011;56610;48.872;2.400;2023-01-01T06:03:19;8.05;;;2.90;;
69417;SDS011;56610;48.872;2.400;2023-01-01T06:05:46;6.63;;;2.33;;
69417;SDS011;56610;48.872;2.400;2023-01-01T06:08:12;8.25;;;3.00;;
69417;SDS011;56610;48.872;2.400;2023-01-01T06:10:37;5.65;;;2.33;;
69417;SDS011;56610;48.872;2.400;2023-01-01T06:13:03;6.95;;;2.30;;
69417;SDS011;56610;48.872;2.400;2023-01-01T06:15:29;8.40;;;2.88;;
69417;SDS011;56610;48.872;2.400;2023-01-01T06:17:54;6.68;;;2.50;;
69417;SDS011;56610;48.872;2.400;2023-01-01T06:20:21;5.55;;;2.35;;
69417;SDS011;56610;48.872;2.400;2023-01-01T06:22:47;8.13;;;2.42;;
69417;SDS011;56610;48.872;2.400;2023-01-01T06:25:12;6.93;;;2.95;;
69417;SDS011;56610;48.872;2.400;2023-01-01T06:27:38;7.15;;;2.78;;
69417;SDS011;56610;48.872;2.400;2023-01-01T06:30:04;6.78;;;2.70;;
69417;SDS011;56610;48.872;2.400;2023-01-01T06:32:31;7.78;;;2.80;;
69417;SDS011;56610;48.872;2.400;2023-01-01T06:34:56;9.05;;;2.60;;
69417;SDS011;56610;48.872;2.400;2023-01-01T06:37:22;8.15;;;2.80;;
69417;SDS011;56610;48.872;2.400;2023-01-01T06:39:48;8.27;;;2.70;;
69417;SDS011;56610;48.872;2.400;2023-01-01T06:42:13;7.72;;;2.53;;
69417;SDS011;56610;48.872;2.400;2023-01-01T06:44:39;7.93;;;2.65;;
69417;SDS011;56610;48.872;2.400;2023-01-01T06:47:04;7.88;;;3.30;;
69417;SDS011;56610;48.872;2.400;2023-01-01T06:49:30;6.93;;;2.40;;
69417;SDS011;56610;48.872;2.400;2023-01-01T06:51:56;6.25;;;3.03;;
69417;SDS011;56610;48.872;2.400;2023-01-01T06:54:22;6.78;;;2.47;;
69417;SDS011;56610;48.872;2.400;2023-01-01T06:56:47;6.57;;;2.42;;
69417;SDS011;56610;48.872;2.400;2023-01-01T06:59:14;7.22;;;2.75;;
69417;SDS011;56610;48.872;2.400;2023-01-01T07:01:40;7.47;;;2.60;;
69417;SDS011;56610;48.872;2.400;2023-01-01T07:04:07;5.60;;;2.50;;
69417;SDS011;56610;48.872;2.400;2023-01-01T07:06:36;7.80;;;2.40;;
69417;SDS011;56610;48.872;2.400;2023-01-01T07:09:02;7.20;;;2.15;;
69417;SDS011;56610;48.872;2.400;2023-01-01T07:11:28;10.02;;;2.78;;
69417;SDS011;56610;48.872;2.400;2023-01-01T07:13:54;6.38;;;2.60;;
69417;SDS011;56610;48.872;2.400;2023-01-01T07:16:20;6.03;;;2.42;;
69417;SDS011;56610;48.872;2.400;2023-01-01T07:18:47;7.60;;;2.72;;
69417;SDS011;56610;48.872;2.400;2023-01-01T07:21:25;6.47;;;2.40;;
69417;SDS011;56610;48.872;2.400;2023-01-01T07:23:52;6.35;;;2.65;;
69417;SDS011;56610;48.872;2.400;2023-01-01T07:26:20;6.03;;;2.47;;
69417;SDS011;56610;48.872;2.400;2023-01-01T07:28:49;6.50;;;2.25;;
69417;SDS011;56610;48.872;2.400;2023-01-01T07:31:15;8.52;;;2.70;;
69417;SDS011;56610;48.872;2.400;2023-01-01T07:33:41;5.53;;;2.50;;
69417;SDS011;56610;48.872;2.400;2023-01-01T07:36:07;7.93;;;2.47;;
69417;SDS011;56610;48.872;2.400;2023-01-01T07:38:32;6.53;;;2.38;;
69417;SDS011;56610;48.872;2.400;2023-01-01T07:40:58;6.43;;;2.50;;
69417;SDS011;56610;48.872;2.400;2023-01-01T07:43:24;8.05;;;2.83;;
69417;SDS011;56610;48.872;2.400;2023-01-01T07:45:49;7.63;;;2.90;;
69417;SDS011;56610;48.872;2.400;2023-01-01T07:48:15;7.35;;;2.22;;
69417;SDS011;56610;48.872;2.400;2023-01-01T07:50:41;7.07;;;2.47;;
69417;SDS011;56610;48.872;2.400;2023-01-01T07:53:07;6.55;;;2.38;;
69417;SDS011;56610;48.872;2.400;2023-01-01T07:55:33;8.70;;;2.70;;
69417;SDS011;56610;48.872;2.400;2023-01-01T07:57:59;8.57;;;2.25;;
69417;SDS011;56610;48.872;2.400;2023-01-01T08:00:25;5.43;;;2.22;;
69417;SDS011;56610;48.872;2.400;2023-01-01T08:02:51;9.65;;;2.80;;
69417;SDS011;56610;48.872;2.400;2023-01-01T08:05:17;7.13;;;2.60;;
69417;SDS011;56610;48.872;2.400;2023-01-01T08:07:46;8.93;;;3.10;;
69417;SDS011;56610;48.872;2.400;2023-01-01T08:10:13;5.38;;;2.13;;
69417;SDS011;56610;48.872;2.400;2023-01-01T08:12:40;7.03;;;2.38;;
69417;SDS011;56610;48.872;2.400;2023-01-01T08:15:06;9.60;;;2.40;;
69417;SDS011;56610;48.872;2.400;2023-01-01T08:17:33;5.97;;;2.30;;
69417;SDS011;56610;48.872;2.400;2023-01-01T08:19:59;5.13;;;2.47;;
69417;SDS011;56610;48.872;2.400;2023-01-01T08:22:24;6.80;;;2.35;;
69417;SDS011;56610;48.872;2.400;2023-01-01T08:24:50;6.13;;;2.15;;
69417;SDS011;56610;48.872;2.400;2023-01-01T08:27:15;6.93;;;2.55;;
69417;SDS011;56610;48.872;2.400;2023-01-01T08:29:42;7.03;;;2.60;;
69417;SDS011;56610;48.872;2.400;2023-01-01T08:32:08;7.93;;;2.85;;
69417;SDS011;56610;48.872;2.400;2023-01-01T08:34:34;8.60;;;3.03;;
69417;SDS011;56610;48.872;2.400;2023-01-01T08:37:00;6.10;;;2.33;;
69417;SDS011;56610;48.872;2.400;2023-01-01T08:39:26;7.88;;;2.42;;
69417;SDS011;56610;48.872;2.400;2023-01-01T08:41:52;6.28;;;2.33;;
69417;SDS011;56610;48.872;2.400;2023-01-01T08:44:18;6.32;;;2.13;;
69417;SDS011;56610;48.872;2.400;2023-01-01T08:46:44;7.05;;;2.80;;
69417;SDS011;56610;48.872;2.400;2023-01-01T08:49:13;6.07;;;2.50;;
69417;SDS011;56610;48.872;2.400;2023-01-01T08:51:38;6.72;;;2.30;;
69417;SDS011;56610;48.872;2.400;2023-01-01T08:54:04;8.32;;;2.25;;
69417;SDS011;56610;48.872;2.400;2023-01-01T08:56:39;5.80;;;2.40;;
69417;SDS011;56610;48.872;2.400;2023-01-01T08:59:04;9.00;;;2.67;;
69417;SDS011;56610;48.872;2.400;2023-01-01T09:01:30;6.43;;;2.58;;
69417;SDS011;56610;48.872;2.400;2023-01-01T09:03:55;9.73;;;2.80;;
69417;SDS011;56610;48.872;2.400;2023-01-01T09:06:21;9.52;;;2.88;;
69417;SDS011;56610;48.872;2.400;2023-01-01T09:08:47;8.35;;;2.90;;
69417;SDS011;56610;48.872;2.400;2023-01-01T09:13:48;7.68;;;2.10;;
69417;SDS011;56610;48.872;2.400;2023-01-01T09:16:14;8.85;;;2.55;;
69417;SDS011;56610;48.872;2.400;2023-01-01T09:18:40;7.40;;;2.80;;
69417;SDS011;56610;48.872;2.400;2023-01-01T09:21:05;8.27;;;2.92;;
69417;SDS011;56610;48.872;2.400;2023-01-01T09:23:31;8.77;;;2.70;;
69417;SDS011;56610;48.872;2.400;2023-01-01T09:26:01;8.82;;;2.78;;
69417;SDS011;56610;48.872;2.400;2023-01-01T09:28:27;7.50;;;3.05;;
69417;SDS011;56610;48.872;2.400;2023-01-01T09:30:53;6.32;;;2.17;;
69417;SDS011;56610;48.872;2.400;2023-01-01T09:33:19;6.35;;;2.50;;
69417;SDS011;56610;48.872;2.400;2023-01-01T09:35:44;9.48;;;3.00;;
69417;SDS011;56610;48.872;2.400;2023-01-01T09:38:10;9.40;;;2.40;;
69417;SDS011;56610;48.872;2.400;2023-01-01T09:44:01;7.25;;;2.63;;
69417;SDS011;56610;48.872;2.400;2023-01-01T09:46:27;6.93;;;2.92;;
69417;SDS011;56610;48.872;2.400;2023-01-01T09:48:55;5.68;;;2.55;;
69417;SDS011;56610;48.872;2.400;2023-01-01T09:51:34;4.85;;;2.10;;
69417;SDS011;56610;48.872;2.400;2023-01-01T09:54:10;6.50;;;2.80;;
69417;SDS011;56610;48.872;2.400;2023-01-01T09:56:46;8.10;;;2.30;;
69417;SDS011;56610;48.872;2.400;2023-01-01T09:59:17;10.13;;;3.13;;
69417;SDS011;56610;48.872;2.400;2023-01-01T10:15:43;7.63;;;2.50;;
69417;SDS011;56610;48.872;2.400;2023-01-01T10:17:57;7.22;;;2.83;;
69417;SDS011;56610;48.872;2.400;2023-01-01T10:20:35;6.65;;;2.58;;
69417;SDS011;56610;48.872;2.400;2023-01-01T10:23:09;4.93;;;2.60;;
69417;SDS011;56610;48.872;2.400;2023-01-01T10:25:39;7.75;;;2.67;;
69417;SDS011;56610;48.872;2.400;2023-01-01T10:28:08;5.43;;;2.40;;
69417;SDS011;56610;48.872;2.400;2023-01-01T10:30:39;8.45;;;2.80;;
69417;SDS011;56610;48.872;2.400;2023-01-01T10:33:10;5.97;;;2.90;;
69417;SDS011;56610;48.872;2.400;2023-01-01T10:35:47;5.93;;;2.60;;
69417;SDS011;56610;48.872;2.400;2023-01-01T10:38:21;8.95;;;2.40;;
69417;SDS011;56610;48.872;2.400;2023-01-01T10:40:48;6.70;;;2.65;;
69417;SDS011;56610;48.872;2.400;2023-01-01T10:43:20;7.40;;;2.80;;
69417;SDS011;56610;48.872;2.400;2023-01-01T10:45:47;5.30;;;2.50;;
69417;SDS011;56610;48.872;2.400;2023-01-01T10:48:19;7.13;;;2.70;;
69417;SDS011;56610;48.872;2.400;2023-01-01T10:53:57;8.07;;;2.75;;
69417;SDS011;56610;48.872;2.400;2023-01-01T10:56:15;6.72;;;2.50;;
69417;SDS011;56610;48.872;2.400;2023-01-01T10:58:52;7.30;;;3.08;;
69417;SDS011;56610;48.872;2.400;2023-01-01T11:01:21;6.63;;;2.72;;
69417;SDS011;56610;48.872;2.400;2023-01-01T11:06:42;5.65;;;2.55;;
69417;SDS011;56610;48.872;2.400;2023-01-01T11:11:47;6.70;;;2.72;;
69417;SDS011;56610;48.872;2.400;2023-01-01T11:14:26;5.57;;;2.75;;
69417;SDS011;56610;48.872;2.400;2023-01-01T11:16:54;7.20;;;2.70;;
69417;SDS011;56610;48.872;2.400;2023-01-01T11:19:25;5.45;;;2.65;;
69417;SDS011;56610;48.872;2.400;2023-01-01T11:21:53;5.40;;;2.83;;
69417;SDS011;56610;48.872;2.400;2023-01-01T11:24:20;4.50;;;2.08;;
69417;SDS011;56610;48.872;2.400;2023-01-01T11:26:48;5.47;;;2.58;;
69417;SDS011;56610;48.872;2.400;2023-01-01T11:31:39;6.13;;;2.67;;
69417;SDS011;56610;48.872;2.400;2023-01-01T11:34:22;5.50;;;2.33;;
69417;SDS011;56610;48.872;2.400;2023-01-01T11:39:41;6.65;;;2.50;;
69417;SDS011;56610;48.872;2.400;2023-01-01T11:42:14;8.18;;;3.10;;
69417;SDS011;56610;48.872;2.400;2023-01-01T11:45:02;3.95;;;2.60;;
69417;SDS011;56610;48.872;2.400;2023-01-01T11:47:49;6.32;;;3.83;;
69417;SDS011;56610;48.872;2.400;2023-01-01T11:50:37;6.47;;;3.35;;
69417;SDS011;56610;48.872;2.400;2023-01-01T12:01:11;6.43;;;2.58;;
69417;SDS011;56610;48.872;2.400;2023-01-01T12:06:29;6.60;;;2.90;;
69417;SDS011;56610;48.872;2.400;2023-01-01T12:09:22;7.47;;;2.72;;
69417;SDS011;56610;48.872;2.400;2023-01-01T12:15:00;7.32;;;2.70;;
69417;SDS011;56610;48.872;2.400;2023-01-01T12:20:34;7.15;;;2.75;;
69417;SDS011;56610;48.872;2.400;2023-01-01T12:23:21;5.15;;;2.70;;
69417;SDS011;56610;48.872;2.400;2023-01-01T12:36:47;5.47;;;2.85;;
69417;SDS011;56610;48.872;2.400;2023-01-01T12:52:55;6.22;;;2.90;;
69417;SDS011;56610;48.872;2.400;2023-01-01T12:55:58;5.20;;;2.50;;
69417;SDS011;56610;48.872;2.400;2023-01-01T12:59:11;6.38;;;2.65;;
69417;SDS011;56610;48.872;2.400;2023-01-01T13:01:34;5.68;;;3.05;;
69417;SDS011;56610;48.872;2.400;2023-01-01T13:04:02;6.93;;;3.10;;
69417;SDS011;56610;48.872;2.400;2023-01-01T13:06:36;6.07;;;3.25;;
69417;SDS011;56610;48.872;2.400;2023-01-01T13:09:17;6.38;;;3.47;;
69417;SDS011;56610;48.872;2.400;2023-01-01T13:11:43;4.72;;;2.88;;
69417;SDS011;56610;48.872;2.400;2023-01-01T13:14:13;7.18;;;3.22;;
69417;SDS011;56610;48.872;2.400;2023-01-01T13:16:39;7.13;;;3.20;;
69417;SDS011;56610;48.872;2.400;2023-01-01T13:19:21;7.82;;;3.90;;
69417;SDS011;56610;48.872;2.400;2023-01-01T13:21:59;4.95;;;2.90;;
69417;SDS011;56610;48.872;2.400;2023-01-01T13:25:01;7.72;;;3.70;;
69417;SDS011;56610;48.872;2.400;2023-01-01T13:33:17;7.30;;;3.83;;
69417;SDS011;56610;48.872;2.400;2023-01-01T13:38:47;7.88;;;3.88;;
69417;SDS011;56610;48.872;2.400;2023-01-01T13:41:27;8.25;;;3.88;;
69417;SDS011;56610;48.872;2.400;2023-01-01T14:02:47;8.27;;;3.50;;
69417;SDS011;56610;48.872;2.400;2023-01-01T14:05:43;6.65;;;3.40;;
69417;SDS011;56610;48.872;2.400;2023-01-01T14:08:29;5.85;;;3.03;;
69417;SDS011;56610;48.872;2.400;2023-01-01T14:10:56;4.95;;;3.22;;
69417;SDS011;56610;48.872;2.400;2023-01-01T14:13:24;6.63;;;4.22;;
69417;SDS011;56610;48.872;2.400;2023-01-01T14:15:54;6.20;;;3.75;;
69417;SDS011;56610;48.872;2.400;2023-01-01T14:21:02;8.88;;;3.80;;
69417;SDS011;56610;48.872;2.400;2023-01-01T14:23:33;6.70;;;4.13;;
69417;SDS011;56610;48.872;2.400;2023-01-01T14:26:14;9.88;;;5.55;;
69417;SDS011;56610;48.872;2.400;2023-01-01T14:28:42;7.20;;;4.70;;
69417;SDS011;56610;48.872;2.400;2023-01-01T14:31:09;8.63;;;4.78;;
69417;SDS011;56610;48.872;2.400;2023-01-01T14:33:40;7.15;;;4.80;;
69417;SDS011;56610;48.872;2.400;2023-01-01T14:38:52;9.25;;;4.75;;
69417;SDS011;56610;48.872;2.400;2023-01-01T14:41:23;8.32;;;4.93;;
69417;SDS011;56610;48.872;2.400;2023-01-01T14:43:56;9.15;;;5.22;;
69417;SDS011;56610;48.872;2.400;2023-01-01T14:46:50;7.70;;;4.60;;
69417;SDS011;56610;48.872;2.400;2023-01-01T14:49:38;8.68;;;4.90;;
69417;SDS011;56610;48.872;2.400;2023-01-01T14:52:15;7.45;;;4.65;;
69417;SDS011;56610;48.872;2.400;2023-01-01T14:54:52;6.47;;;4.30;;
69417;SDS011;56610;48.872;2.400;2023-01-01T14:57:25;6.28;;;4.45;;
69417;SDS011;56610;48.872;2.400;2023-01-01T14:59:56;5.75;;;4.78;;
69417;SDS011;56610;48.872;2.400;2023-01-01T15:02:25;8.10;;;4.03;;
69417;SDS011;56610;48.872;2.400;2023-01-01T15:04:53;7.90;;;4.10;;
69417;SDS011;56610;48.872;2.400;2023-01-01T15:07:26;8.25;;;4.45;;
69417;SDS011;56610;48.872;2.400;2023-01-01T15:09:54;7.55;;;5.05;;
69417;SDS011;56610;48.872;2.400;2023-01-01T15:12:24;7.55;;;4.85;;
69417;SDS011;56610;48.872;2.400;2023-01-01T15:14:51;8.65;;;4.93;;
69417;SDS011;56610;48.872;2.400;2023-01-01T15:17:18;7.60;;;4.47;;
69417;SDS011;56610;48.872;2.400;2023-01-01T15:19:46;10.73;;;5.03;;
69417;SDS011;56610;48.872;2.400;2023-01-01T15:22:44;10.05;;;5.10;;
69417;SDS011;56610;48.872;2.400;2023-01-01T15:25:13;7.93;;;5.15;;
69417;SDS011;56610;48.872;2.400;2023-01-01T15:27:41;8.18;;;4.90;;
69417;SDS011;56610;48.872;2.400;2023-01-01T15:30:30;8.55;;;4.55;;
69417;SDS011;56610;48.872;2.400;2023-01-01T15:33:07;7.57;;;4.55;;
69417;SDS011;56610;48.872;2.400;2023-01-01T15:35:38;7.18;;;4.43;;
69417;SDS011;56610;48.872;2.400;2023-01-01T15:38:22;7.88;;;4.95;;
69417;SDS011;56610;48.872;2.400;2023-01-01T15:40:50;8.75;;;4.75;;
69417;SDS011;56610;48.872;2.400;2023-01-01T15:43:20;7.82;;;5.10;;
69417;SDS011;56610;48.872;2.400;2023-01-01T15:45:53;6.03;;;3.95;;
69417;SDS011;56610;48.872;2.400;2023-01-01T15:48:35;5.95;;;4.38;;
69417;SDS011;56610;48.872;2.400;2023-01-01T15:51:16;7.17;;;4.10;;
69417;SDS011;56610;48.872;2.400;2023-01-01T15:53:47;5.45;;;4.00;;
69417;SDS011;56610;48.872;2.400;2023-01-01T15:56:15;6.50;;;4.57;;
69417;SDS011;56610;48.872;2.400;2023-01-01T15:58:44;6.15;;;4.05;;
69417;SDS011;56610;48.872;2.400;2023-01-01T16:01:20;6.53;;;4.47;;
69417;SDS011;56610;48.872;2.400;2023-01-01T16:03:49;7.88;;;4.32;;
69417;SDS011;56610;48.872;2.400;2023-01-01T16:06:19;8.18;;;4.60;;
69417;SDS011;56610;48.872;2.400;2023-01-01T16:08:46;6.70;;;4.78;;
69417;SDS011;56610;48.872;2.400;2023-01-01T16:11:12;7.60;;;4.32;;
69417;SDS011;56610;48.872;2.400;2023-01-01T16:13:38;8.27;;;4.88;;
69417;SDS011;56610;48.872;2.400;2023-01-01T16:16:04;8.48;;;4.80;;
69417;SDS011;56610;48.872;2.400;2023-01-01T16:18:48;7.57;;;4.68;;
69417;SDS011;56610;48.872;2.400;2023-01-01T16:21:14;8.27;;;4.70;;
69417;SDS011;56610;48.872;2.400;2023-01-01T16:23:39;7.38;;;4.32;;
69417;SDS011;56610;48.872;2.400;2023-01-01T16:26:05;6.47;;;4.05;;
69417;SDS011;56610;48.872;2.400;2023-01-01T16:28:30;6.28;;;4.43;;
69417;SDS011;56610;48.872;2.400;2023-01-01T16:30:56;7.93;;;4.25;;
69417;SDS011;56610;48.872;2.400;2023-01-01T16:33:22;7.45;;;4.15;;
69417;SDS011;56610;48.872;2.400;2023-01-01T16:35:47;8.45;;;4.50;;
69417;SDS011;56610;48.872;2.400;2023-01-01T16:38:13;5.63;;;4.18;;
69417;SDS011;56610;48.872;2.400;2023-01-01T16:40:39;6.15;;;4.00;;
69417;SDS011;56610;48.872;2.400;2023-01-01T16:43:05;7.25;;;3.83;;
69417;SDS011;56610;48.872;2.400;2023-01-01T16:45:36;7.78;;;4.05;;
69417;SDS011;56610;48.872;2.400;2023-01-01T16:48:01;5.45;;;3.90;;
69417;SDS011;56610;48.872;2.400;2023-01-01T16:50:27;6.05;;;4.10;;
69417;SDS011;56610;48.872;2.400;2023-01-01T16:52:53;9.75;;;5.18;;
69417;SDS011;56610;48.872;2.400;2023-01-01T16:55:18;8.25;;;4.10;;
69417;SDS011;56610;48.872;2.400;2023-01-01T16:57:44;9.57;;;4.22;;
69417;SDS011;56610;48.872;2.400;2023-01-01T17:00:11;6.00;;;3.50;;
69417;SDS011;56610;48.872;2.400;2023-01-01T17:02:37;5.38;;;3.38;;
69417;SDS011;56610;48.872;2.400;2023-01-01T17:05:03;5.35;;;3.97;;
69417;SDS011;56610;48.872;2.400;2023-01-01T17:07:29;8.82;;;4.55;;
69417;SDS011;56610;48.872;2.400;2023-01-01T17:09:54;6.10;;;3.95;;
69417;SDS011;56610;48.872;2.400;2023-01-01T17:12:20;7.05;;;3.90;;
69417;SDS011;56610;48.872;2.400;2023-01-01T17:14:46;6.10;;;3.75;;
69417;SDS011;56610;48.872;2.400;2023-01-01T17:17:11;6.97;;;4.00;;
69417;SDS011;56610;48.872;2.400;2023-01-01T17:19:37;6.35;;;4.03;;
69417;SDS011;56610;48.872;2.400;2023-01-01T17:22:02;7.38;;;3.85;;
69417;SDS011;56610;48.872;2.400;2023-01-01T17:24:29;6.15;;;3.78;;
69417;SDS011;56610;48.872;2.400;2023-01-01T17:26:55;6.85;;;3.53;;
69417;SDS011;56610;48.872;2.400;2023-01-01T17:29:21;5.57;;;3.85;;
69417;SDS011;56610;48.872;2.400;2023-01-01T17:31:47;6.85;;;3.67;;